sensor_id;sensor_type;location;lat;lon;timestamp;temperature;humidity
8220;DHT22;4151;51.110;7.020;2024-03-25T00:02:06;5.80;99.90
8220;DHT22;4151;51.110;7.020;2024-03-25T00:04:32;5.80;99.90
8220;DHT22;4151;51.110;7.020;2024-03-25T00:06:57;5.80;99.90
8220;DHT22;4151;51.110;7.020;2024-03-25T00:09:24;5.80;99.90
8220;DHT22;4151;51.110;7.020;2024-03-25T00:11:49;5.80;99.90
8220;DHT22;4151;51.110;7.020;2024-03-25T00:14:20;5.80;99.90
8220;DHT22;4151;51.110;7.020;2024-03-25T00:16:45;5.80;99.90
8220;DHT22;4151;51.110;7.020;2024-03-25T00:19:12;5.80;99.90
8220;DHT22;4151;51.110;7.020;2024-03-25T00:21:37;5.80;99.90
8220;DHT22;4151;51.110;7.020;2024-03-25T00:24:03;5.80;99.90
8220;DHT22;4151;51.110;7.020;2024-03-25T00:26:29;5.80;99.90
8220;DHT22;4151;51.110;7.020;2024-03-25T00:28:55;5.80;99.90
8220;DHT22;4151;51.110;7.020;2024-03-25T00:31:20;5.80;99.90
8220;DHT22;4151;51.110;7.020;2024-03-25T00:33:46;5.80;99.90
8220;DHT22;4151;51.110;7.020;2024-03-25T00:36:12;5.80;99.90
8220;DHT22;4151;51.110;7.020;2024-03-25T00:38:37;5.80;99.90
8220;DHT22;4151;51.110;7.020;2024-03-25T00:41:03;5.80;99.90
8220;DHT22;4151;51.110;7.020;2024-03-25T00:43:28;5.80;99.90
8220;DHT22;4151;51.110;7.020;2024-03-25T00:45:54;5.70;99.90
8220;DHT22;4151;51.110;7.020;2024-03-25T00:48:19;5.70;99.90
8220;DHT22;4151;51.110;7.020;2024-03-25T00:50:45;5.60;99.90
8220;DHT22;4151;51.110;7.020;2024-03-25T00:53:10;5.60;99.90
8220;DHT22;4151;51.110;7.020;2024-03-25T00:55:37;5.60;99.90
8220;DHT22;4151;51.110;7.020;2024-03-25T00:58:02;5.60;99.90
8220;DHT22;4151;51.110;7.020;2024-03-25T01:00:29;5.50;99.90
8220;DHT22;4151;51.110;7.020;2024-03-25T01:02:54;5.50;99.90
8220;DHT22;4151;51.110;7.020;2024-03-25T01:05:20;5.50;99.90
8220;DHT22;4151;51.110;7.020;2024-03-25T01:07:45;5.50;99.90
8220;DHT22;4151;51.110;7.020;2024-03-25T01:10:11;5.50;99.90
8220;DHT22;4151;51.110;7.020;2024-03-25T01:12:36;5.50;99.90
8220;DHT22;4151;51.110;7.020;2024-03-25T01:15:01;5.50;99.90
8220;DHT22;4151;51.110;7.020;2024-03-25T01:17:28;5.50;99.90
8220;DHT22;4151;51.110;7.020;2024-03-25T01:19:54;5.50;99.90
8220;DHT22;4151;51.110;7.020;2024-03-25T01:22:19;5.50;99.90
8220;DHT22;4151;51.110;7.020;2024-03-25T01:24:45;5.50;99.90
8220;DHT22;4151;51.110;7.020;2024-03-25T01:27:10;5.40;99.90
8220;DHT22;4151;51.110;7.020;2024-03-25T01:29:36;5.40;99.90
8220;DHT22;4151;51.110;7.020;2024-03-25T01:32:02;5.40;99.90
8220;DHT22;4151;51.110;7.020;2024-03-25T01:34:28;5.40;99.90
8220;DHT22;4151;51.110;7.020;2024-03-25T01:36:53;5.40;99.90
8220;DHT22;4151;51.110;7.020;2024-03-25T01:39:18;5.40;99.90
8220;DHT22;4151;51.110;7.020;2024-03-25T01:41:44;5.40;99.90
8220;DHT22;4151;51.110;7.020;2024-03-25T01:44:10;5.40;99.90
8220;DHT22;4151;51.110;7.020;2024-03-25T01:46:36;5.40;99.90
8220;DHT22;4151;51.110;7.020;2024-03-25T01:49:01;5.30;99.90
8220;DHT22;4151;51.110;7.020;2024-03-25T01:51:27;5.30;99.90
8220;DHT22;4151;51.110;7.020;2024-03-25T01:53:53;5.20;99.90
8220;DHT22;4151;51.110;7.020;2024-03-25T01:56:19;5.10;99.90
8220;DHT22;4151;51.110;7.020;2024-03-25T01:58:45;5.10;99.90
8220;DHT22;4151;51.110;7.020;2024-03-25T02:01:11;5.00;99.90
8220;DHT22;4151;51.110;7.020;2024-03-25T02:03:39;5.00;99.90
8220;DHT22;4151;51.110;7.020;2024-03-25T02:06:06;4.90;99.90
8220;DHT22;4151;51.110;7.020;2024-03-25T02:08:34;4.90;99.90
8220;DHT22;4151;51.110;7.020;2024-03-25T02:10:59;4.80;99.90
8220;DHT22;4151;51.110;7.020;2024-03-25T02:13:25;4.80;99.90
8220;DHT22;4151;51.110;7.020;2024-03-25T02:15:50;4.80;99.90
8220;DHT22;4151;51.110;7.020;2024-03-25T02:18:17;4.80;99.90
8220;DHT22;4151;51.110;7.020;2024-03-25T02:20:42;4.90;99.90
8220;DHT22;4151;51.110;7.020;2024-03-25T02:23:08;4.90;99.90
8220;DHT22;4151;51.110;7.020;2024-03-25T02:25:35;5.00;99.90
8220;DHT22;4151;51.110;7.020;2024-03-25T02:28:03;5.00;99.90
8220;DHT22;4151;51.110;7.020;2024-03-25T02:30:28;5.00;99.90
8220;DHT22;4151;51.110;7.020;2024-03-25T02:32:54;5.10;99.90
8220;DHT22;4151;51.110;7.020;2024-03-25T02:35:19;5.10;99.90
8220;DHT22;4151;51.110;7.020;2024-03-25T02:37:46;5.10;99.90
8220;DHT22;4151;51.110;7.020;2024-03-25T02:40:12;5.10;99.90
8220;DHT22;4151;51.110;7.020;2024-03-25T02:42:37;5.10;99.90
8220;DHT22;4151;51.110;7.020;2024-03-25T02:45:05;5.10;99.90
8220;DHT22;4151;51.110;7.020;2024-03-25T02:47:30;5.10;99.90
8220;DHT22;4151;51.110;7.020;2024-03-25T02:49:56;5.10;99.90
8220;DHT22;4151;51.110;7.020;2024-03-25T02:52:21;5.10;99.90
8220;DHT22;4151;51.110;7.020;2024-03-25T02:54:47;5.10;99.90
8220;DHT22;4151;51.110;7.020;2024-03-25T02:57:12;5.10;99.90
8220;DHT22;4151;51.110;7.020;2024-03-25T02:59:38;5.10;99.90
8220;DHT22;4151;51.110;7.020;2024-03-25T03:02:04;5.10;99.90
8220;DHT22;4151;51.110;7.020;2024-03-25T03:04:29;5.10;99.90
8220;DHT22;4151;51.110;7.020;2024-03-25T03:06:55;5.00;99.90
8220;DHT22;4151;51.110;7.020;2024-03-25T03:09:22;5.00;99.90
8220;DHT22;4151;51.110;7.020;2024-03-25T03:11:47;5.00;99.90
8220;DHT22;4151;51.110;7.020;2024-03-25T03:14:13;5.00;99.90
8220;DHT22;4151;51.110;7.020;2024-03-25T03:16:38;5.00;99.90
8220;DHT22;4151;51.110;7.020;2024-03-25T03:19:04;5.00;99.90
8220;DHT22;4151;51.110;7.020;2024-03-25T03:21:30;5.00;99.90
8220;DHT22;4151;51.110;7.020;2024-03-25T03:23:55;5.00;99.90
8220;DHT22;4151;51.110;7.020;2024-03-25T03:26:21;4.90;99.90
8220;DHT22;4151;51.110;7.020;2024-03-25T03:28:46;4.90;99.90
8220;DHT22;4151;51.110;7.020;2024-03-25T03:31:12;4.90;99.90
8220;DHT22;4151;51.110;7.020;2024-03-25T03:33:37;4.90;99.90
8220;DHT22;4151;51.110;7.020;2024-03-25T03:36:03;4.90;99.90
8220;DHT22;4151;51.110;7.020;2024-03-25T03:38:28;4.90;99.90
8220;DHT22;4151;51.110;7.020;2024-03-25T03:40:57;4.90;99.90
8220;DHT22;4151;51.110;7.020;2024-03-25T03:43:23;4.80;99.90
8220;DHT22;4151;51.110;7.020;2024-03-25T03:45:48;4.80;99.90
8220;DHT22;4151;51.110;7.020;2024-03-25T03:48:14;4.70;99.90
8220;DHT22;4151;51.110;7.020;2024-03-25T03:50:39;4.70;99.90
8220;DHT22;4151;51.110;7.020;2024-03-25T03:53:05;4.70;99.90
8220;DHT22;4151;51.110;7.020;2024-03-25T03:55:30;4.70;99.90
8220;DHT22;4151;51.110;7.020;2024-03-25T03:57:56;4.60;99.90
8220;DHT22;4151;51.110;7.020;2024-03-25T04:00:21;4.60;99.90
8220;DHT22;4151;51.110;7.020;2024-03-25T04:02:47;4.60;99.90
8220;DHT22;4151;51.110;7.020;2024-03-25T04:05:12;4.60;99.90
8220;DHT22;4151;51.110;7.020;2024-03-25T04:07:37;4.60;99.90
8220;DHT22;4151;51.110;7.020;2024-03-25T04:10:04;4.60;99.90
8220;DHT22;4151;51.110;7.020;2024-03-25T04:12:29;4.70;99.90
8220;DHT22;4151;51.110;7.020;2024-03-25T04:14:55;4.60;99.90
8220;DHT22;4151;51.110;7.020;2024-03-25T04:17:21;4.60;99.90
8220;DHT22;4151;51.110;7.020;2024-03-25T04:19:50;4.60;99.90
8220;DHT22;4151;51.110;7.020;2024-03-25T04:22:16;4.60;99.90
8220;DHT22;4151;51.110;7.020;2024-03-25T04:24:45;4.50;99.90
8220;DHT22;4151;51.110;7.020;2024-03-25T04:27:10;4.40;99.90
8220;DHT22;4151;51.110;7.020;2024-03-25T04:29:36;4.40;99.90
8220;DHT22;4151;51.110;7.020;2024-03-25T04:32:02;4.30;99.90
8220;DHT22;4151;51.110;7.020;2024-03-25T04:34:28;4.20;99.90
8220;DHT22;4151;51.110;7.020;2024-03-25T04:36:53;4.10;99.90
8220;DHT22;4151;51.110;7.020;2024-03-25T04:39:19;4.10;99.90
8220;DHT22;4151;51.110;7.020;2024-03-25T04:41:45;4.10;99.90
8220;DHT22;4151;51.110;7.020;2024-03-25T04:44:11;4.10;99.90
8220;DHT22;4151;51.110;7.020;2024-03-25T04:46:37;4.10;99.90
8220;DHT22;4151;51.110;7.020;2024-03-25T04:49:02;4.20;99.90
8220;DHT22;4151;51.110;7.020;2024-03-25T04:51:27;4.20;99.90
8220;DHT22;4151;51.110;7.020;2024-03-25T04:53:53;4.30;99.90
8220;DHT22;4151;51.110;7.020;2024-03-25T04:56:18;4.30;99.90
8220;DHT22;4151;51.110;7.020;2024-03-25T04:58:44;4.30;99.90
8220;DHT22;4151;51.110;7.020;2024-03-25T05:01:09;4.30;99.90
8220;DHT22;4151;51.110;7.020;2024-03-25T05:03:35;4.20;99.90
8220;DHT22;4151;51.110;7.020;2024-03-25T05:06:00;4.20;99.90
8220;DHT22;4151;51.110;7.020;2024-03-25T05:08:26;4.00;99.90
8220;DHT22;4151;51.110;7.020;2024-03-25T05:10:51;4.00;99.90
8220;DHT22;4151;51.110;7.020;2024-03-25T05:13:17;3.90;99.90
8220;DHT22;4151;51.110;7.020;2024-03-25T05:15:49;3.80;99.90
8220;DHT22;4151;51.110;7.020;2024-03-25T05:18:14;3.70;99.90
8220;DHT22;4151;51.110;7.020;2024-03-25T05:20:40;3.60;99.90
8220;DHT22;4151;51.110;7.020;2024-03-25T05:23:05;3.60;99.90
8220;DHT22;4151;51.110;7.020;2024-03-25T05:25:31;3.50;99.90
8220;DHT22;4151;51.110;7.020;2024-03-25T05:27:56;3.40;99.90
8220;DHT22;4151;51.110;7.020;2024-03-25T05:30:22;3.40;99.90
8220;DHT22;4151;51.110;7.020;2024-03-25T05:32:48;3.30;99.90
8220;DHT22;4151;51.110;7.020;2024-03-25T05:35:14;3.30;99.90
8220;DHT22;4151;51.110;7.020;2024-03-25T05:37:39;3.20;99.90
8220;DHT22;4151;51.110;7.020;2024-03-25T05:40:05;3.20;99.90
8220;DHT22;4151;51.110;7.020;2024-03-25T05:42:30;3.20;99.90
8220;DHT22;4151;51.110;7.020;2024-03-25T05:44:56;3.30;99.90
8220;DHT22;4151;51.110;7.020;2024-03-25T05:47:21;3.30;99.90
8220;DHT22;4151;51.110;7.020;2024-03-25T05:49:47;3.40;99.90
8220;DHT22;4151;51.110;7.020;2024-03-25T05:52:12;3.40;99.90
8220;DHT22;4151;51.110;7.020;2024-03-25T05:54:38;3.40;99.90
8220;DHT22;4151;51.110;7.020;2024-03-25T05:57:03;3.50;99.90
8220;DHT22;4151;51.110;7.020;2024-03-25T05:59:29;3.40;99.90
8220;DHT22;4151;51.110;7.020;2024-03-25T06:01:54;3.40;99.90
8220;DHT22;4151;51.110;7.020;2024-03-25T06:04:20;3.40;99.90
8220;DHT22;4151;51.110;7.020;2024-03-25T06:06:45;3.40;99.90
8220;DHT22;4151;51.110;7.020;2024-03-25T06:09:11;3.40;99.90
8220;DHT22;4151;51.110;7.020;2024-03-25T06:11:36;3.40;99.90
8220;DHT22;4151;51.110;7.020;2024-03-25T06:14:02;3.40;99.90
8220;DHT22;4151;51.110;7.020;2024-03-25T06:16:27;3.30;99.90
8220;DHT22;4151;51.110;7.020;2024-03-25T06:18:53;3.40;99.90
8220;DHT22;4151;51.110;7.020;2024-03-25T06:21:18;3.40;99.90
8220;DHT22;4151;51.110;7.020;2024-03-25T06:23:44;3.40;99.90
8220;DHT22;4151;51.110;7.020;2024-03-25T06:26:09;3.40;99.90
8220;DHT22;4151;51.110;7.020;2024-03-25T06:28:35;3.50;99.90
8220;DHT22;4151;51.110;7.020;2024-03-25T06:31:00;3.50;99.90
8220;DHT22;4151;51.110;7.020;2024-03-25T06:33:44;3.70;99.90
8220;DHT22;4151;51.110;7.020;2024-03-25T06:36:28;3.70;99.90
8220;DHT22;4151;51.110;7.020;2024-03-25T06:38:54;3.90;99.90
8220;DHT22;4151;51.110;7.020;2024-03-25T06:41:19;4.00;99.90
8220;DHT22;4151;51.110;7.020;2024-03-25T06:43:46;4.10;99.90
8220;DHT22;4151;51.110;7.020;2024-03-25T06:46:11;4.20;99.90
8220;DHT22;4151;51.110;7.020;2024-03-25T06:48:37;4.30;99.90
8220;DHT22;4151;51.110;7.020;2024-03-25T06:51:03;4.40;99.90
8220;DHT22;4151;51.110;7.020;2024-03-25T06:53:28;4.40;99.90
8220;DHT22;4151;51.110;7.020;2024-03-25T06:55:57;4.50;99.90
8220;DHT22;4151;51.110;7.020;2024-03-25T06:58:23;4.60;99.90
8220;DHT22;4151;51.110;7.020;2024-03-25T07:00:49;4.70;99.90
8220;DHT22;4151;51.110;7.020;2024-03-25T07:03:17;4.70;99.90
8220;DHT22;4151;51.110;7.020;2024-03-25T07:05:46;4.80;99.90
8220;DHT22;4151;51.110;7.020;2024-03-25T07:08:12;4.90;99.90
8220;DHT22;4151;51.110;7.020;2024-03-25T07:10:38;4.90;99.90
8220;DHT22;4151;51.110;7.020;2024-03-25T07:13:04;5.00;99.90
8220;DHT22;4151;51.110;7.020;2024-03-25T07:15:31;5.10;99.90
8220;DHT22;4151;51.110;7.020;2024-03-25T07:17:56;5.10;99.90
8220;DHT22;4151;51.110;7.020;2024-03-25T07:20:21;5.20;99.90
8220;DHT22;4151;51.110;7.020;2024-03-25T07:22:48;5.20;99.90
8220;DHT22;4151;51.110;7.020;2024-03-25T07:25:13;5.30;99.90
8220;DHT22;4151;51.110;7.020;2024-03-25T07:27:39;5.40;99.90
8220;DHT22;4151;51.110;7.020;2024-03-25T07:30:06;5.50;99.90
8220;DHT22;4151;51.110;7.020;2024-03-25T07:32:32;5.60;99.90
8220;DHT22;4151;51.110;7.020;2024-03-25T07:34:57;5.70;99.90
8220;DHT22;4151;51.110;7.020;2024-03-25T07:37:23;5.80;99.90
8220;DHT22;4151;51.110;7.020;2024-03-25T07:39:48;5.80;99.90
8220;DHT22;4151;51.110;7.020;2024-03-25T07:42:14;5.90;99.90
8220;DHT22;4151;51.110;7.020;2024-03-25T07:44:39;6.00;99.90
8220;DHT22;4151;51.110;7.020;2024-03-25T07:47:05;6.00;99.90
8220;DHT22;4151;51.110;7.020;2024-03-25T07:49:31;6.10;99.90
8220;DHT22;4151;51.110;7.020;2024-03-25T07:51:56;6.20;99.90
8220;DHT22;4151;51.110;7.020;2024-03-25T07:54:22;6.30;99.90
8220;DHT22;4151;51.110;7.020;2024-03-25T07:56:48;6.40;99.90
8220;DHT22;4151;51.110;7.020;2024-03-25T07:59:13;6.40;99.90
8220;DHT22;4151;51.110;7.020;2024-03-25T08:01:39;6.50;99.90
8220;DHT22;4151;51.110;7.020;2024-03-25T08:04:04;6.60;99.90
8220;DHT22;4151;51.110;7.020;2024-03-25T08:06:29;6.80;99.90
8220;DHT22;4151;51.110;7.020;2024-03-25T08:08:55;7.00;99.90
8220;DHT22;4151;51.110;7.020;2024-03-25T08:11:20;7.10;99.90
8220;DHT22;4151;51.110;7.020;2024-03-25T08:13:46;7.10;99.90
8220;DHT22;4151;51.110;7.020;2024-03-25T08:16:12;7.30;99.90
8220;DHT22;4151;51.110;7.020;2024-03-25T08:18:37;7.60;99.90
8220;DHT22;4151;51.110;7.020;2024-03-25T08:21:03;7.90;99.90
8220;DHT22;4151;51.110;7.020;2024-03-25T08:23:28;8.20;99.90
8220;DHT22;4151;51.110;7.020;2024-03-25T08:25:54;8.60;99.90
8220;DHT22;4151;51.110;7.020;2024-03-25T08:28:19;8.80;99.90
8220;DHT22;4151;51.110;7.020;2024-03-25T08:30:44;9.00;99.90
8220;DHT22;4151;51.110;7.020;2024-03-25T08:33:10;9.20;99.90
8220;DHT22;4151;51.110;7.020;2024-03-25T08:35:36;9.40;99.90
8220;DHT22;4151;51.110;7.020;2024-03-25T08:38:03;9.60;99.90
8220;DHT22;4151;51.110;7.020;2024-03-25T08:40:29;9.90;99.90
8220;DHT22;4151;51.110;7.020;2024-03-25T08:42:54;10.10;99.90
8220;DHT22;4151;51.110;7.020;2024-03-25T08:45:20;10.60;99.90
8220;DHT22;4151;51.110;7.020;2024-03-25T08:47:47;10.90;99.90
8220;DHT22;4151;51.110;7.020;2024-03-25T08:50:13;10.90;99.90
8220;DHT22;4151;51.110;7.020;2024-03-25T08:52:38;10.80;99.90
8220;DHT22;4151;51.110;7.020;2024-03-25T08:55:05;10.10;99.90
8220;DHT22;4151;51.110;7.020;2024-03-25T08:57:31;9.60;99.90
8220;DHT22;4151;51.110;7.020;2024-03-25T08:59:56;9.50;99.90
8220;DHT22;4151;51.110;7.020;2024-03-25T09:02:22;9.80;99.90
8220;DHT22;4151;51.110;7.020;2024-03-25T09:04:47;9.90;99.90
8220;DHT22;4151;51.110;7.020;2024-03-25T09:07:13;10.00;99.90
8220;DHT22;4151;51.110;7.020;2024-03-25T09:09:39;10.20;99.90
8220;DHT22;4151;51.110;7.020;2024-03-25T09:12:23;10.20;99.90
8220;DHT22;4151;51.110;7.020;2024-03-25T09:14:48;10.40;99.90
8220;DHT22;4151;51.110;7.020;2024-03-25T09:17:14;10.70;99.90
8220;DHT22;4151;51.110;7.020;2024-03-25T09:19:41;11.20;99.90
8220;DHT22;4151;51.110;7.020;2024-03-25T09:22:06;11.50;99.90
8220;DHT22;4151;51.110;7.020;2024-03-25T09:24:32;11.70;99.90
8220;DHT22;4151;51.110;7.020;2024-03-25T09:26:58;12.20;99.90
8220;DHT22;4151;51.110;7.020;2024-03-25T09:29:23;12.10;99.90
8220;DHT22;4151;51.110;7.020;2024-03-25T09:31:49;11.80;99.90
8220;DHT22;4151;51.110;7.020;2024-03-25T09:34:14;11.60;99.90
8220;DHT22;4151;51.110;7.020;2024-03-25T09:36:39;11.90;99.90
8220;DHT22;4151;51.110;7.020;2024-03-25T09:39:05;11.90;99.90
8220;DHT22;4151;51.110;7.020;2024-03-25T09:41:31;11.40;99.90
8220;DHT22;4151;51.110;7.020;2024-03-25T09:44:00;10.80;99.90
8220;DHT22;4151;51.110;7.020;2024-03-25T09:46:25;11.00;99.90
8220;DHT22;4151;51.110;7.020;2024-03-25T09:48:54;11.30;99.90
8220;DHT22;4151;51.110;7.020;2024-03-25T09:51:20;12.40;99.90
8220;DHT22;4151;51.110;7.020;2024-03-25T09:53:46;12.90;99.90
8220;DHT22;4151;51.110;7.020;2024-03-25T09:56:12;12.90;99.90
8220;DHT22;4151;51.110;7.020;2024-03-25T09:58:37;13.00;99.90
8220;DHT22;4151;51.110;7.020;2024-03-25T10:01:04;12.60;99.90
8220;DHT22;4151;51.110;7.020;2024-03-25T10:03:29;12.40;99.90
8220;DHT22;4151;51.110;7.020;2024-03-25T10:05:55;12.20;99.90
8220;DHT22;4151;51.110;7.020;2024-03-25T10:08:21;11.70;99.90
8220;DHT22;4151;51.110;7.020;2024-03-25T10:10:46;11.40;99.90
8220;DHT22;4151;51.110;7.020;2024-03-25T10:13:11;11.00;99.90
8220;DHT22;4151;51.110;7.020;2024-03-25T10:15:37;11.40;99.90
8220;DHT22;4151;51.110;7.020;2024-03-25T10:18:02;12.00;99.90
8220;DHT22;4151;51.110;7.020;2024-03-25T10:20:28;12.80;99.90
8220;DHT22;4151;51.110;7.020;2024-03-25T10:22:53;13.50;99.90
8220;DHT22;4151;51.110;7.020;2024-03-25T10:25:22;13.70;99.90
8220;DHT22;4151;51.110;7.020;2024-03-25T10:27:58;13.00;99.90
8220;DHT22;4151;51.110;7.020;2024-03-25T10:30:24;13.40;99.90
8220;DHT22;4151;51.110;7.020;2024-03-25T10:35:26;13.40;99.90
8220;DHT22;4151;51.110;7.020;2024-03-25T10:37:51;13.20;99.90
8220;DHT22;4151;51.110;7.020;2024-03-25T10:40:18;12.80;99.90
8220;DHT22;4151;51.110;7.020;2024-03-25T10:42:43;11.90;99.90
8220;DHT22;4151;51.110;7.020;2024-03-25T10:45:11;11.40;99.90
8220;DHT22;4151;51.110;7.020;2024-03-25T10:47:36;11.10;99.90
8220;DHT22;4151;51.110;7.020;2024-03-25T10:50:05;11.20;99.90
8220;DHT22;4151;51.110;7.020;2024-03-25T10:52:34;11.50;99.90
8220;DHT22;4151;51.110;7.020;2024-03-25T10:55:01;12.10;99.90
8220;DHT22;4151;51.110;7.020;2024-03-25T10:57:26;12.70;99.90
8220;DHT22;4151;51.110;7.020;2024-03-25T10:59:53;13.40;99.90
8220;DHT22;4151;51.110;7.020;2024-03-25T11:02:20;14.10;99.90
8220;DHT22;4151;51.110;7.020;2024-03-25T11:04:46;14.60;99.90
8220;DHT22;4151;51.110;7.020;2024-03-25T11:07:15;14.40;99.90
8220;DHT22;4151;51.110;7.020;2024-03-25T11:09:41;14.80;99.90
8220;DHT22;4151;51.110;7.020;2024-03-25T11:12:09;15.40;99.90
8220;DHT22;4151;51.110;7.020;2024-03-25T11:14:34;16.30;99.90
8220;DHT22;4151;51.110;7.020;2024-03-25T11:17:00;17.50;99.90
8220;DHT22;4151;51.110;7.020;2024-03-25T11:19:27;18.00;99.90
8220;DHT22;4151;51.110;7.020;2024-03-25T11:21:53;17.70;99.90
8220;DHT22;4151;51.110;7.020;2024-03-25T11:24:28;17.20;99.90
8220;DHT22;4151;51.110;7.020;2024-03-25T11:26:53;16.60;99.90
8220;DHT22;4151;51.110;7.020;2024-03-25T11:29:19;16.40;99.90
8220;DHT22;4151;51.110;7.020;2024-03-25T11:31:45;15.20;99.90
8220;DHT22;4151;51.110;7.020;2024-03-25T11:34:10;15.20;99.90
8220;DHT22;4151;51.110;7.020;2024-03-25T11:36:36;15.00;99.90
8220;DHT22;4151;51.110;7.020;2024-03-25T11:39:01;15.20;99.90
8220;DHT22;4151;51.110;7.020;2024-03-25T11:41:32;16.30;99.90
8220;DHT22;4151;51.110;7.020;2024-03-25T11:43:58;17.30;99.90
8220;DHT22;4151;51.110;7.020;2024-03-25T11:46:24;17.30;99.90
8220;DHT22;4151;51.110;7.020;2024-03-25T11:48:50;17.20;99.90
8220;DHT22;4151;51.110;7.020;2024-03-25T11:51:19;17.70;99.90
8220;DHT22;4151;51.110;7.020;2024-03-25T11:53:44;18.40;99.90
8220;DHT22;4151;51.110;7.020;2024-03-25T11:56:13;19.20;99.90
8220;DHT22;4151;51.110;7.020;2024-03-25T11:58:39;19.00;97.80
8220;DHT22;4151;51.110;7.020;2024-03-25T12:01:04;19.90;96.80
8220;DHT22;4151;51.110;7.020;2024-03-25T12:03:30;19.40;97.90
8220;DHT22;4151;51.110;7.020;2024-03-25T12:05:56;19.70;92.40
8220;DHT22;4151;51.110;7.020;2024-03-25T12:08:21;18.60;91.80
8220;DHT22;4151;51.110;7.020;2024-03-25T12:10:51;19.10;91.60
8220;DHT22;4151;51.110;7.020;2024-03-25T12:13:35;20.40;89.80
8220;DHT22;4151;51.110;7.020;2024-03-25T12:16:01;20.00;89.10
8220;DHT22;4151;51.110;7.020;2024-03-25T12:18:27;19.80;89.30
8220;DHT22;4151;51.110;7.020;2024-03-25T12:20:53;19.90;88.70
8220;DHT22;4151;51.110;7.020;2024-03-25T12:23:21;20.80;90.10
8220;DHT22;4151;51.110;7.020;2024-03-25T12:25:50;21.50;85.10
8220;DHT22;4151;51.110;7.020;2024-03-25T12:28:15;22.50;80.70
8220;DHT22;4151;51.110;7.020;2024-03-25T12:30:51;21.60;76.50
8220;DHT22;4151;51.110;7.020;2024-03-25T12:33:17;20.00;79.00
8220;DHT22;4151;51.110;7.020;2024-03-25T12:35:45;18.30;82.50
8220;DHT22;4151;51.110;7.020;2024-03-25T12:38:10;17.60;85.60
8220;DHT22;4151;51.110;7.020;2024-03-25T12:40:46;17.40;86.40
8220;DHT22;4151;51.110;7.020;2024-03-25T12:43:17;17.70;85.70
8220;DHT22;4151;51.110;7.020;2024-03-25T12:45:43;18.70;85.00
8220;DHT22;4151;51.110;7.020;2024-03-25T12:48:08;19.50;81.60
8220;DHT22;4151;51.110;7.020;2024-03-25T12:50:34;19.40;77.10
8220;DHT22;4151;51.110;7.020;2024-03-25T12:53:00;19.10;75.80
8220;DHT22;4151;51.110;7.020;2024-03-25T12:55:25;18.40;75.90
8220;DHT22;4151;51.110;7.020;2024-03-25T12:57:51;17.60;78.40
8220;DHT22;4151;51.110;7.020;2024-03-25T13:00:16;16.80;79.10
8220;DHT22;4151;51.110;7.020;2024-03-25T13:02:42;16.80;80.50
8220;DHT22;4151;51.110;7.020;2024-03-25T13:05:08;17.40;81.90
8220;DHT22;4151;51.110;7.020;2024-03-25T13:07:33;18.10;85.40
8220;DHT22;4151;51.110;7.020;2024-03-25T13:09:59;19.10;80.30
8220;DHT22;4151;51.110;7.020;2024-03-25T13:12:24;19.40;77.90
8220;DHT22;4151;51.110;7.020;2024-03-25T13:14:50;19.00;76.60
8220;DHT22;4151;51.110;7.020;2024-03-25T13:17:16;19.00;80.50
8220;DHT22;4151;51.110;7.020;2024-03-25T13:19:41;19.20;74.70
8220;DHT22;4151;51.110;7.020;2024-03-25T13:22:07;19.70;76.70
8220;DHT22;4151;51.110;7.020;2024-03-25T13:24:32;20.40;79.60
8220;DHT22;4151;51.110;7.020;2024-03-25T13:26:58;21.40;78.50
8220;DHT22;4151;51.110;7.020;2024-03-25T13:29:24;21.10;78.00
8220;DHT22;4151;51.110;7.020;2024-03-25T13:31:49;21.90;72.40
8220;DHT22;4151;51.110;7.020;2024-03-25T13:34:16;21.90;68.00
8220;DHT22;4151;51.110;7.020;2024-03-25T13:36:42;21.40;68.90
8220;DHT22;4151;51.110;7.020;2024-03-25T13:39:07;20.70;73.50
8220;DHT22;4151;51.110;7.020;2024-03-25T13:41:34;20.50;75.50
8220;DHT22;4151;51.110;7.020;2024-03-25T13:43:59;19.70;76.70
8220;DHT22;4151;51.110;7.020;2024-03-25T13:46:25;19.90;70.40
8220;DHT22;4151;51.110;7.020;2024-03-25T13:48:51;20.30;71.30
8220;DHT22;4151;51.110;7.020;2024-03-25T13:51:17;21.90;70.90
8220;DHT22;4151;51.110;7.020;2024-03-25T13:53:43;22.40;70.10
8220;DHT22;4151;51.110;7.020;2024-03-25T13:56:08;22.30;62.20
8220;DHT22;4151;51.110;7.020;2024-03-25T13:58:34;21.90;62.60
8220;DHT22;4151;51.110;7.020;2024-03-25T14:00:59;20.90;63.90
8220;DHT22;4151;51.110;7.020;2024-03-25T14:03:26;21.50;61.30
8220;DHT22;4151;51.110;7.020;2024-03-25T14:05:52;21.30;58.60
8220;DHT22;4151;51.110;7.020;2024-03-25T14:08:17;20.90;58.50
8220;DHT22;4151;51.110;7.020;2024-03-25T14:10:43;21.60;58.30
8220;DHT22;4151;51.110;7.020;2024-03-25T14:13:09;22.20;56.20
8220;DHT22;4151;51.110;7.020;2024-03-25T14:15:34;23.10;59.70
8220;DHT22;4151;51.110;7.020;2024-03-25T14:18:00;24.50;57.80
8220;DHT22;4151;51.110;7.020;2024-03-25T14:20:25;24.20;54.20
8220;DHT22;4151;51.110;7.020;2024-03-25T14:22:51;24.40;53.20
8220;DHT22;4151;51.110;7.020;2024-03-25T14:25:16;24.50;54.30
8220;DHT22;4151;51.110;7.020;2024-03-25T14:27:42;25.20;52.60
8220;DHT22;4151;51.110;7.020;2024-03-25T14:30:08;24.00;52.80
8220;DHT22;4151;51.110;7.020;2024-03-25T14:32:36;24.60;50.90
8220;DHT22;4151;51.110;7.020;2024-03-25T14:35:04;23.20;51.90
8220;DHT22;4151;51.110;7.020;2024-03-25T14:37:29;23.80;51.00
8220;DHT22;4151;51.110;7.020;2024-03-25T14:39:55;24.40;52.60
8220;DHT22;4151;51.110;7.020;2024-03-25T14:42:21;25.00;49.90
8220;DHT22;4151;51.110;7.020;2024-03-25T14:44:46;25.10;49.40
8220;DHT22;4151;51.110;7.020;2024-03-25T14:47:12;25.80;48.90
8220;DHT22;4151;51.110;7.020;2024-03-25T14:49:37;25.20;49.70
8220;DHT22;4151;51.110;7.020;2024-03-25T14:52:03;26.60;49.20
8220;DHT22;4151;51.110;7.020;2024-03-25T14:54:35;27.50;48.20
8220;DHT22;4151;51.110;7.020;2024-03-25T14:57:01;27.10;47.90
8220;DHT22;4151;51.110;7.020;2024-03-25T14:59:27;25.90;48.00
8220;DHT22;4151;51.110;7.020;2024-03-25T15:01:53;25.10;47.90
8220;DHT22;4151;51.110;7.020;2024-03-25T15:04:19;25.90;48.60
8220;DHT22;4151;51.110;7.020;2024-03-25T15:06:45;25.70;47.80
8220;DHT22;4151;51.110;7.020;2024-03-25T15:09:10;25.70;49.30
8220;DHT22;4151;51.110;7.020;2024-03-25T15:11:36;25.70;47.30
8220;DHT22;4151;51.110;7.020;2024-03-25T15:14:03;26.10;48.80
8220;DHT22;4151;51.110;7.020;2024-03-25T15:16:30;26.10;47.70
8220;DHT22;4151;51.110;7.020;2024-03-25T15:18:56;26.10;48.40
8220;DHT22;4151;51.110;7.020;2024-03-25T15:21:21;25.10;48.30
8220;DHT22;4151;51.110;7.020;2024-03-25T15:23:47;26.00;48.70
8220;DHT22;4151;51.110;7.020;2024-03-25T15:26:12;25.80;46.00
8220;DHT22;4151;51.110;7.020;2024-03-25T15:28:38;25.90;45.80
8220;DHT22;4151;51.110;7.020;2024-03-25T15:31:03;27.20;47.10
8220;DHT22;4151;51.110;7.020;2024-03-25T15:33:29;26.20;45.30
8220;DHT22;4151;51.110;7.020;2024-03-25T15:35:54;25.20;46.10
8220;DHT22;4151;51.110;7.020;2024-03-25T15:38:20;24.00;48.20
8220;DHT22;4151;51.110;7.020;2024-03-25T15:40:45;23.80;48.70
8220;DHT22;4151;51.110;7.020;2024-03-25T15:43:16;23.60;50.70
8220;DHT22;4151;51.110;7.020;2024-03-25T15:45:42;25.00;49.70
8220;DHT22;4151;51.110;7.020;2024-03-25T15:48:07;26.60;46.90
8220;DHT22;4151;51.110;7.020;2024-03-25T15:50:35;26.50;46.20
8220;DHT22;4151;51.110;7.020;2024-03-25T15:53:00;27.40;47.40
8220;DHT22;4151;51.110;7.020;2024-03-25T15:55:26;27.60;45.20
8220;DHT22;4151;51.110;7.020;2024-03-25T15:57:53;25.50;46.20
8220;DHT22;4151;51.110;7.020;2024-03-25T16:00:19;25.30;46.20
8220;DHT22;4151;51.110;7.020;2024-03-25T16:02:45;26.30;46.70
8220;DHT22;4151;51.110;7.020;2024-03-25T16:05:13;27.10;45.60